createdAt,value
2023-03-28T00:01:54.463Z,12.95
2023-03-28T00:04:30.034Z,7.88
2023-03-28T00:07:02.347Z,10.10
2023-03-28T00:09:34.812Z,9.90
2023-03-28T00:12:07.053Z,15.02
2023-03-28T00:14:39.657Z,10.82
2023-03-28T00:17:11.912Z,11.33
2023-03-28T00:19:47.134Z,12.73
2023-03-28T00:22:23.061Z,11.23
2023-03-28T00:24:57.317Z,12.93
2023-03-28T00:27:29.530Z,11.13
2023-03-28T00:30:03.054Z,16.05
2023-03-28T00:35:08.107Z,10.88
2023-03-28T00:37:42.245Z,11.85
2023-03-28T00:40:14.840Z,13.85
2023-03-28T00:42:46.943Z,14.07
2023-03-28T00:45:21.705Z,10.77
2023-03-28T00:48:02.246Z,11.40
2023-03-28T00:50:38.231Z,11.70
2023-03-28T00:53:15.262Z,11.90
2023-03-28T00:55:51.366Z,10.32
2023-03-28T00:58:29.451Z,10.60
2023-03-28T01:01:01.883Z,10.48
2023-03-28T01:03:35.868Z,13.32
2023-03-28T01:06:13.962Z,9.15
2023-03-28T01:08:47.467Z,11.10
2023-03-28T01:11:21.646Z,10.07
2023-03-28T01:13:55.537Z,15.27
2023-03-28T01:16:33.795Z,13.45
2023-03-28T01:19:27.061Z,10.98
2023-03-28T01:22:31.839Z,10.27
2023-03-28T01:25:39.827Z,11.98
2023-03-28T01:28:24.230Z,12.98
2023-03-28T01:31:21.542Z,10.23
2023-03-28T01:34:48.303Z,12.73
2023-03-28T01:37:26.252Z,16.48
2023-03-28T01:40:34.412Z,12.20
2023-03-28T01:43:14.938Z,12.63
2023-03-28T01:45:59.711Z,11.95
2023-03-28T01:48:54.468Z,15.88
2023-03-28T01:51:51.187Z,13.13
2023-03-28T01:54:39.486Z,15.45
2023-03-28T01:57:52.826Z,15.98
2023-03-28T02:00:31.142Z,18.42
2023-03-28T02:03:18.845Z,16.02
2023-03-28T02:05:59.099Z,17.98
2023-03-28T02:08:34.788Z,18.13
2023-03-28T02:11:20.536Z,18.35
2023-03-28T02:14:19.738Z,15.02
2023-03-28T02:17:09.515Z,16.92
2023-03-28T02:20:11.755Z,17.52
2023-03-28T02:26:12.608Z,20.92
2023-03-28T02:29:01.646Z,19.50
2023-03-28T02:31:54.703Z,16.40
2023-03-28T02:34:27.405Z,18.25
2023-03-28T02:37:02.186Z,15.50
2023-03-28T02:39:39.906Z,18.35
2023-03-28T02:42:45.942Z,22.35
2023-03-28T02:45:51.369Z,19.40
2023-03-28T02:48:45.537Z,19.05
2023-03-28T02:51:25.932Z,20.73
2023-03-28T02:54:17.578Z,18.65
2023-03-28T02:57:04.860Z,18.55
2023-03-28T02:59:57.724Z,16.88
2023-03-28T03:05:04.021Z,23.27
2023-03-28T03:07:39.474Z,20.75
2023-03-28T03:10:14.284Z,17.83
2023-03-28T03:12:50.732Z,20.95
2023-03-28T03:15:22.943Z,21.80
2023-03-28T03:18:01.874Z,20.02
2023-03-28T03:20:37.336Z,19.77
2023-03-28T03:23:09.484Z,23.02
2023-03-28T03:25:43.724Z,26.40
2023-03-28T03:28:21.699Z,19.05
2023-03-28T03:30:56.241Z,27.45
2023-03-28T03:33:43.718Z,19.10
2023-03-28T03:36:19.029Z,19.08
2023-03-28T03:38:52.711Z,19.90
2023-03-28T03:41:27.912Z,19.13
2023-03-28T03:44:00.109Z,21.85
2023-03-28T03:46:34.807Z,19.20
2023-03-28T03:49:09.879Z,22.38
2023-03-28T03:51:42.203Z,21.00
2023-03-28T03:54:14.344Z,21.05
2023-03-28T03:56:46.758Z,21.27
2023-03-28T03:59:19.748Z,20.58
2023-03-28T04:01:52.792Z,20.70
2023-03-28T04:04:25.058Z,20.77
2023-03-28T04:07:16.025Z,25.75
2023-03-28T04:09:50.063Z,20.98
2023-03-28T04:12:22.814Z,21.05
2023-03-28T04:14:57.404Z,24.80
2023-03-28T04:17:50.498Z,19.70
2023-03-28T04:20:30.130Z,20.30
2023-03-28T04:23:08.647Z,19.35
2023-03-28T04:25:43.005Z,18.25
2023-03-28T04:28:20.266Z,20.90
2023-03-28T04:31:01.281Z,21.02
2023-03-28T04:33:54.077Z,18.35
2023-03-28T04:36:27.349Z,18.73
2023-03-28T04:39:06.583Z,23.40
2023-03-28T04:41:56.345Z,25.35
2023-03-28T04:44:33.044Z,20.38
2023-03-28T04:47:11.870Z,26.17
2023-03-28T04:49:44.379Z,20.45
2023-03-28T04:52:17.066Z,22.80
2023-03-28T04:54:52.120Z,22.15
2023-03-28T04:57:27.389Z,23.20
2023-03-28T05:00:09.837Z,19.75
2023-03-28T05:03:01.051Z,24.70
2023-03-28T05:05:41.419Z,24.40
2023-03-28T05:08:19.025Z,22.85
2023-03-28T05:10:51.865Z,25.77
2023-03-28T05:13:24.101Z,24.13
2023-03-28T05:16:07.926Z,20.48
2023-03-28T05:19:06.778Z,24.25
2023-03-28T05:22:07.252Z,30.77
2023-03-28T05:24:41.373Z,23.55
2023-03-28T05:27:20.451Z,20.10
2023-03-28T05:29:53.548Z,23.23
2023-03-28T05:32:28.325Z,21.88
2023-03-28T05:35:00.934Z,23.83
2023-03-28T05:37:38.688Z,23.58
2023-03-28T05:40:14.543Z,23.95
2023-03-28T05:42:48.521Z,32.65
2023-03-28T05:45:23.642Z,21.67
2023-03-28T05:48:06.758Z,22.50
2023-03-28T05:50:41.526Z,24.42
2023-03-28T05:53:14.017Z,24.63
2023-03-28T05:55:46.325Z,27.60
2023-03-28T05:58:20.316Z,24.02
2023-03-28T06:00:52.646Z,31.90
2023-03-28T06:03:26.228Z,20.87
2023-03-28T06:05:58.788Z,22.48
2023-03-28T06:08:32.852Z,23.00
2023-03-28T06:11:05.462Z,27.15
2023-03-28T06:13:52.609Z,22.05
2023-03-28T06:16:30.632Z,23.08
2023-03-28T06:19:17.135Z,23.40
2023-03-28T06:21:54.685Z,24.88
2023-03-28T06:24:26.965Z,23.02
2023-03-28T06:27:00.159Z,23.85
2023-03-28T06:29:32.411Z,20.63
2023-03-28T06:32:08.049Z,20.92
2023-03-28T06:34:40.124Z,22.13
2023-03-28T06:37:12.249Z,23.90
2023-03-28T06:39:58.986Z,18.17
2023-03-28T06:42:40.158Z,17.25
2023-03-28T06:45:41.627Z,18.33
2023-03-28T06:48:19.590Z,19.38
2023-03-28T06:51:25.537Z,19.90
2023-03-28T06:53:57.786Z,22.92
2023-03-28T06:56:33.810Z,17.10
2023-03-28T06:59:06.106Z,15.63
2023-03-28T07:01:39.753Z,18.85
2023-03-28T07:04:15.565Z,12.40
2023-03-28T07:06:50.442Z,16.27
2023-03-28T07:09:22.652Z,13.55
2023-03-28T07:12:01.700Z,18.70
2023-03-28T07:14:34.352Z,15.70
2023-03-28T07:19:40.437Z,13.48
2023-03-28T07:22:12.791Z,14.75
2023-03-28T07:24:45.074Z,12.25
2023-03-28T07:27:18.912Z,16.02
2023-03-28T07:29:51.651Z,15.00
2023-03-28T07:32:23.875Z,16.90
2023-03-28T07:34:56.493Z,13.18
2023-03-28T07:37:31.681Z,14.05
2023-03-28T07:40:30.345Z,8.80
2023-03-28T07:43:02.975Z,11.60
2023-03-28T07:45:36.281Z,10.45
2023-03-28T07:48:09.530Z,7.78
2023-03-28T07:50:42.940Z,14.90
2023-03-28T07:53:18.310Z,13.75
2023-03-28T07:55:54.997Z,11.77
2023-03-28T07:58:33.056Z,9.82
2023-03-28T08:01:12.896Z,16.75
2023-03-28T08:03:52.117Z,7.43
2023-03-28T08:06:32.117Z,10.95
2023-03-28T08:09:08.533Z,9.27
2023-03-28T08:11:46.400Z,13.57
2023-03-28T08:14:18.982Z,10.57
2023-03-28T08:16:52.105Z,11.35
2023-03-28T08:19:24.346Z,9.68
2023-03-28T08:22:19.358Z,9.00
2023-03-28T08:25:02.249Z,7.93
2023-03-28T08:30:14.610Z,10.30
2023-03-28T08:32:57.606Z,10.73
2023-03-28T08:35:30.063Z,11.38
2023-03-28T08:38:05.122Z,9.75
2023-03-28T08:40:43.134Z,10.93
2023-03-28T08:43:26.736Z,12.75
2023-03-28T08:46:01.449Z,8.90
2023-03-28T08:48:46.122Z,7.78
2023-03-28T08:51:37.995Z,14.48
2023-03-28T08:54:16.735Z,7.80
2023-03-28T08:56:52.626Z,11.70
2023-03-28T08:59:53.882Z,4.55
2023-03-28T09:02:28.616Z,8.88
2023-03-28T09:05:21.537Z,7.20
2023-03-28T09:08:11.673Z,3.97
2023-03-28T09:10:50.950Z,5.10
2023-03-28T09:13:36.332Z,7.22
2023-03-28T09:16:33.527Z,5.75
2023-03-28T09:19:50.845Z,5.97
2023-03-28T09:22:59.478Z,6.22
2023-03-28T09:25:45.495Z,7.43
2023-03-28T09:28:41.842Z,11.10
2023-03-28T09:31:16.112Z,6.47
2023-03-28T09:33:50.478Z,8.85
2023-03-28T09:39:34.136Z,5.20
2023-03-28T09:42:45.981Z,9.40
2023-03-28T09:45:36.428Z,4.45
2023-03-28T09:48:37.326Z,7.70
2023-03-28T09:51:17.390Z,4.85
2023-03-28T09:53:50.825Z,8.73
2023-03-28T09:56:28.819Z,6.13
2023-03-28T09:59:28.167Z,9.38
2023-03-28T10:02:04.295Z,6.35
2023-03-28T10:04:41.465Z,10.02
2023-03-28T10:07:42.804Z,4.22
2023-03-28T10:10:34.547Z,7.07
2023-03-28T10:13:12.048Z,3.55
2023-03-28T10:15:47.638Z,6.25
2023-03-28T10:18:27.304Z,5.88
2023-03-28T10:21:37.962Z,5.50
2023-03-28T10:24:22.053Z,5.78
2023-03-28T10:27:07.879Z,11.18
2023-03-28T10:29:40.538Z,7.57
2023-03-28T10:32:23.265Z,8.10
2023-03-28T10:35:21.991Z,7.15
2023-03-28T10:38:05.821Z,9.63
2023-03-28T10:41:22.705Z,6.93
2023-03-28T10:44:36.628Z,5.88
2023-03-28T10:47:18.291Z,5.75
2023-03-28T10:50:04.815Z,4.70
2023-03-28T10:52:58.932Z,9.82
2023-03-28T10:55:41.774Z,5.95
2023-03-28T10:58:36.361Z,7.50
2023-03-28T11:01:31.334Z,7.22
2023-03-28T11:04:28.002Z,5.65
2023-03-28T11:07:08.065Z,8.13
2023-03-28T11:10:19.587Z,5.40
2023-03-28T11:13:22.482Z,6.28
2023-03-28T11:16:25.589Z,7.90
2023-03-28T11:19:37.210Z,9.07
2023-03-28T11:22:41.570Z,6.75
2023-03-28T11:25:46.105Z,7.88
2023-03-28T11:28:50.858Z,7.15
2023-03-28T11:31:51.711Z,6.88
2023-03-28T11:34:33.408Z,5.43
2023-03-28T11:37:27.927Z,10.57
2023-03-28T11:40:14.069Z,5.80
2023-03-28T11:43:01.017Z,6.68
2023-03-28T11:45:52.646Z,6.57
2023-03-28T11:48:47.234Z,6.47
2023-03-28T11:52:29.549Z,6.93
2023-03-28T11:55:28.721Z,5.88
2023-03-28T11:58:17.440Z,5.47
2023-03-28T12:01:00.412Z,9.75
2023-03-28T12:03:54.882Z,9.15
2023-03-28T12:07:03.166Z,6.68
2023-03-28T12:10:16.815Z,7.50
2023-03-28T12:13:27.570Z,7.47
2023-03-28T12:16:21.077Z,5.05
2023-03-28T12:19:02.093Z,6.53
2023-03-28T12:22:09.406Z,6.93
2023-03-28T12:24:52.770Z,5.53
2023-03-28T12:28:03.323Z,9.77
2023-03-28T12:31:07.152Z,6.30
2023-03-28T12:34:05.271Z,6.55
2023-03-28T12:37:04.268Z,6.57
2023-03-28T12:39:47.275Z,3.67
2023-03-28T12:42:28.636Z,4.82
2023-03-28T12:45:05.910Z,5.85
2023-03-28T12:47:50.242Z,6.65
2023-03-28T12:50:47.679Z,7.63
2023-03-28T12:53:22.158Z,5.03
2023-03-28T12:55:54.363Z,9.73
2023-03-28T12:58:33.983Z,7.15
2023-03-28T13:01:19.889Z,5.00
2023-03-28T13:04:28.469Z,5.32
2023-03-28T13:07:29.094Z,5.40
2023-03-28T13:10:07.572Z,3.80
2023-03-28T13:13:17.727Z,5.07
2023-03-28T13:16:22.336Z,4.20
2023-03-28T13:19:13.029Z,4.18
2023-03-28T13:21:55.436Z,5.13
2023-03-28T13:24:31.849Z,4.47
2023-03-28T13:27:12.196Z,4.47
2023-03-28T13:29:51.153Z,5.82
2023-03-28T13:32:24.844Z,4.15
2023-03-28T13:35:00.125Z,4.60
2023-03-28T13:37:47.173Z,5.07
2023-03-28T13:40:51.416Z,4.10
2023-03-28T13:43:42.804Z,5.07
2023-03-28T13:46:20.607Z,5.57
2023-03-28T13:49:06.317Z,6.00
2023-03-28T13:52:09.167Z,4.70
2023-03-28T13:54:41.490Z,6.57
2023-03-28T13:57:17.806Z,5.75
2023-03-28T14:00:00.000Z,6.15
2023-03-28T14:02:43.089Z,4.35
2023-03-28T14:05:27.719Z,4.97
2023-03-28T14:08:15.393Z,4.95
2023-03-28T14:10:48.743Z,3.85
2023-03-28T14:13:28.250Z,5.50
2023-03-28T14:16:00.694Z,6.20
2023-03-28T14:18:37.256Z,7.20
2023-03-28T14:21:10.337Z,6.32
2023-03-28T14:24:06.836Z,5.00
2023-03-28T14:26:39.504Z,5.63
2023-03-28T14:29:13.586Z,3.77
2023-03-28T14:31:48.481Z,6.15
2023-03-28T14:34:35.104Z,4.25
2023-03-28T14:37:18.689Z,6.05
2023-03-28T14:39:51.691Z,3.58
2023-03-28T14:42:24.521Z,3.70
2023-03-28T14:44:56.871Z,6.18
2023-03-28T14:47:35.670Z,5.55
2023-03-28T14:50:14.565Z,4.47
2023-03-28T14:52:48.118Z,4.55
2023-03-28T14:55:23.564Z,4.63
2023-03-28T14:57:56.613Z,4.93
2023-03-28T15:00:40.298Z,5.38
2023-03-28T15:03:22.529Z,5.15
2023-03-28T15:05:55.052Z,8.07
2023-03-28T15:08:28.850Z,7.00
2023-03-28T15:11:05.638Z,5.57
2023-03-28T15:13:39.509Z,5.18
2023-03-28T15:16:20.648Z,7.88
2023-03-28T15:19:07.273Z,4.78
2023-03-28T15:21:41.833Z,9.02
2023-03-28T15:24:18.156Z,5.20
2023-03-28T15:26:55.795Z,4.63
2023-03-28T15:29:31.741Z,7.05
2023-03-28T15:32:16.630Z,6.88
2023-03-28T15:35:04.773Z,5.45
2023-03-28T15:37:42.464Z,5.55
2023-03-28T15:40:27.961Z,6.35
2023-03-28T15:43:01.505Z,7.65
2023-03-28T15:45:40.969Z,7.82
2023-03-28T15:48:17.245Z,8.25
2023-03-28T15:50:52.746Z,4.18
2023-03-28T15:53:29.266Z,8.18
2023-03-28T15:56:34.119Z,5.53
2023-03-28T15:59:14.137Z,9.52
2023-03-28T16:01:46.376Z,11.00
2023-03-28T16:04:22.888Z,5.97
2023-03-28T16:07:04.738Z,9.07
2023-03-28T16:09:43.278Z,6.80
2023-03-28T16:12:15.838Z,5.90
2023-03-28T16:14:53.140Z,8.73
2023-03-28T16:17:49.397Z,5.28
2023-03-28T16:20:28.701Z,9.02
2023-03-28T16:23:07.214Z,8.88
2023-03-28T16:25:43.248Z,4.85
2023-03-28T16:28:21.336Z,6.93
2023-03-28T16:30:53.386Z,7.70
2023-03-28T16:33:25.643Z,4.93
2023-03-28T16:35:58.397Z,7.25
2023-03-28T16:38:30.759Z,7.30
2023-03-28T16:41:02.929Z,6.00
2023-03-28T16:43:37.167Z,7.53
2023-03-28T16:46:11.129Z,5.80
2023-03-28T16:48:48.154Z,4.43
2023-03-28T16:51:20.404Z,7.53
2023-03-28T16:53:52.854Z,6.40
2023-03-28T16:56:27.532Z,11.05
2023-03-28T17:01:32.264Z,6.45
2023-03-28T17:04:04.449Z,6.25
2023-03-28T17:06:36.762Z,5.20
2023-03-28T17:09:08.880Z,7.85
2023-03-28T17:11:42.996Z,5.50
2023-03-28T17:14:15.168Z,3.88
2023-03-28T17:16:47.339Z,5.55
2023-03-28T17:19:23.235Z,4.63
2023-03-28T17:21:57.976Z,4.40
2023-03-28T17:24:30.452Z,4.65
2023-03-28T17:27:03.639Z,7.25
2023-03-28T17:29:35.910Z,8.63
2023-03-28T17:32:08.355Z,5.38
2023-03-28T17:34:41.322Z,6.38
2023-03-28T17:37:13.810Z,6.90
2023-03-28T17:39:47.446Z,6.20
2023-03-28T17:42:20.101Z,4.70
2023-03-28T17:44:52.443Z,4.97
2023-03-28T17:47:24.754Z,3.92
2023-03-28T17:50:00.503Z,6.47
2023-03-28T17:52:32.810Z,6.18
2023-03-28T17:55:06.544Z,7.60
2023-03-28T17:57:39.118Z,5.80
2023-03-28T18:00:12.094Z,7.28
2023-03-28T18:02:47.382Z,9.45
2023-03-28T18:05:39.950Z,11.55
2023-03-28T18:08:12.124Z,5.43
2023-03-28T18:10:47.051Z,5.50
2023-03-28T18:13:21.792Z,8.90
2023-03-28T18:15:54.972Z,8.60
2023-03-28T18:18:27.125Z,5.20
2023-03-28T18:20:59.196Z,7.90
2023-03-28T18:23:32.023Z,5.80
2023-03-28T18:26:04.918Z,6.87
2023-03-28T18:28:37.444Z,7.03
2023-03-28T18:31:12.632Z,10.10
2023-03-28T18:33:45.549Z,6.50
2023-03-28T18:36:17.625Z,8.55
2023-03-28T18:38:50.126Z,13.07
2023-03-28T18:41:22.809Z,8.50
2023-03-28T18:43:54.884Z,8.52
2023-03-28T18:46:30.126Z,10.20
2023-03-28T18:49:02.436Z,8.98
2023-03-28T18:51:35.500Z,15.18
2023-03-28T18:54:07.718Z,13.82
2023-03-28T18:56:40.318Z,13.77
2023-03-28T18:59:12.646Z,18.50
2023-03-28T19:01:51.687Z,13.02
2023-03-28T19:04:25.868Z,13.05
2023-03-28T19:07:02.258Z,11.68
2023-03-28T19:09:34.336Z,13.68
2023-03-28T19:12:07.396Z,16.10
2023-03-28T19:14:39.877Z,11.65
2023-03-28T19:17:12.383Z,12.18
2023-03-28T19:19:44.415Z,9.23
2023-03-28T19:22:16.904Z,10.05
2023-03-28T19:24:48.929Z,10.20
2023-03-28T19:27:21.037Z,10.68
2023-03-28T19:29:53.097Z,12.40
2023-03-28T19:32:25.272Z,10.93
2023-03-28T19:34:58.013Z,11.30
2023-03-28T19:37:30.104Z,13.17
2023-03-28T19:40:08.642Z,11.50
2023-03-28T19:42:41.507Z,10.18
2023-03-28T19:45:13.685Z,9.18
2023-03-28T19:47:45.999Z,9.15
2023-03-28T19:50:18.909Z,9.80
2023-03-28T19:52:51.192Z,8.05
2023-03-28T19:55:24.067Z,7.93
2023-03-28T19:57:58.347Z,6.25
2023-03-28T20:00:31.432Z,7.38
2023-03-28T20:03:03.745Z,7.70
2023-03-28T20:05:41.764Z,12.23
2023-03-28T20:08:14.798Z,10.88
2023-03-28T20:10:49.240Z,8.73
2023-03-28T20:13:21.553Z,10.27
2023-03-28T20:15:54.099Z,15.20
2023-03-28T20:18:26.328Z,11.88
2023-03-28T20:21:04.015Z,13.77
2023-03-28T20:23:37.145Z,10.20
2023-03-28T20:26:16.062Z,14.07
2023-03-28T20:28:57.016Z,14.45
2023-03-28T20:31:29.397Z,10.48
2023-03-28T20:34:02.481Z,13.00
2023-03-28T20:36:35.070Z,14.48
2023-03-28T20:39:09.523Z,15.13
2023-03-28T20:41:41.868Z,11.30
2023-03-28T20:44:20.189Z,11.25
2023-03-28T20:46:52.841Z,14.30
2023-03-28T20:49:25.416Z,13.93
2023-03-28T20:51:59.076Z,13.48
2023-03-28T20:57:03.315Z,13.35
2023-03-28T20:59:35.402Z,11.15
2023-03-28T21:02:10.913Z,8.70
2023-03-28T21:04:43.213Z,10.40
2023-03-28T21:07:15.418Z,12.43
2023-03-28T21:09:47.645Z,9.40
2023-03-28T21:12:19.857Z,16.83
2023-03-28T21:14:52.226Z,10.25
2023-03-28T21:17:29.437Z,11.23
2023-03-28T21:20:03.492Z,12.23
2023-03-28T21:22:41.204Z,8.40
2023-03-28T21:25:14.401Z,11.95
2023-03-28T21:27:51.016Z,10.75
2023-03-28T21:30:23.099Z,13.38
2023-03-28T21:33:01.525Z,13.13
2023-03-28T21:35:38.709Z,10.70
2023-03-28T21:38:10.766Z,14.32
2023-03-28T21:40:42.902Z,9.13
2023-03-28T21:43:16.160Z,10.50
2023-03-28T21:45:48.678Z,13.00
2023-03-28T21:48:21.295Z,11.57
2023-03-28T21:50:59.790Z,12.73
2023-03-28T21:53:34.512Z,14.30
2023-03-28T21:56:07.137Z,13.07
2023-03-28T21:58:39.370Z,11.40
2023-03-28T22:01:14.283Z,7.40
2023-03-28T22:03:47.729Z,10.73
2023-03-28T22:08:53.046Z,7.60
2023-03-28T22:11:30.224Z,6.85
2023-03-28T22:14:03.091Z,6.35
2023-03-28T22:16:38.191Z,8.30
2023-03-28T22:19:11.223Z,9.20
2023-03-28T22:21:44.690Z,10.93
2023-03-28T22:24:17.455Z,7.03
2023-03-28T22:26:49.474Z,5.43
2023-03-28T22:29:21.578Z,7.22
2023-03-28T22:31:53.703Z,6.35
2023-03-28T22:34:26.526Z,7.22
2023-03-28T22:36:59.077Z,5.50
2023-03-28T22:39:31.588Z,6.75
2023-03-28T22:42:04.412Z,6.93
2023-03-28T22:44:36.700Z,6.40
2023-03-28T22:47:09.054Z,6.43
2023-03-28T22:49:41.226Z,6.13
2023-03-28T22:52:13.819Z,9.43
2023-03-28T22:54:46.371Z,6.85
2023-03-28T22:57:19.163Z,5.60
2023-03-28T22:59:52.828Z,4.85
2023-03-28T23:04:58.873Z,5.70
2023-03-28T23:10:05.734Z,4.05
2023-03-28T23:12:38.772Z,4.00
2023-03-28T23:15:12.034Z,4.50
2023-03-28T23:17:44.668Z,4.88
2023-03-28T23:20:17.377Z,4.15
2023-03-28T23:22:49.452Z,4.00
2023-03-28T23:25:22.477Z,2.45
2023-03-28T23:27:54.881Z,3.35
2023-03-28T23:30:27.308Z,7.13
2023-03-28T23:32:59.434Z,9.25
2023-03-28T23:35:32.062Z,7.38
2023-03-28T23:38:05.289Z,7.93
2023-03-28T23:40:37.629Z,9.93
2023-03-28T23:43:09.898Z,9.18
2023-03-28T23:45:43.240Z,9.13
2023-03-28T23:48:15.867Z,6.53
2023-03-28T23:50:47.976Z,6.30
2023-03-28T23:53:20.032Z,5.95
2023-03-28T23:55:52.057Z,5.68
2023-03-28T23:58:24.109Z,7.82
